Flight Track Log - Related Links

Times and Time Zones

All times are in EDT time to prevent confusion due to time zone crossing. See the N184RB flight status page for this flight to view local times or setup timezone preferences in your user account.

Time Position Orientation Groundspeed Altitude Reporting Facility
EDT Latitude Longitude Course Direction KTS MPH feet Rate Location/Type
Thu 11:53:36 AM 45.6814 -84.4803 143° Southeast 184 212 8,000  Level Minneapolis Center
Thu 11:54:38 AM 45.6406 -84.4364 143° Southeast 185 213 9,100 1,210 Climbing Minneapolis Center
Thu 11:55:40 AM 45.5956 -84.3856 142° Southeast 194 223 10,500 1,210 Climbing Minneapolis Center
Thu 11:56:42 AM 45.5539 -84.3389 142° Southeast 195 224 11,600 1,016 Climbing Minneapolis Center
Thu 11:57:44 AM 45.5089 -84.2878 141° Southeast 195 224 12,600 968 Climbing Minneapolis Center
Thu 11:58:46 AM 45.4636 -84.2333 140° Southeast 197 227 13,600 919 Climbing Minneapolis Center
Thu 11:59:48 AM 45.4206 -84.1828 140° Southeast 203 234 14,500 871 Climbing Minneapolis Center
Thu 12:00:50 PM 45.3747 -84.1278 140° Southeast 203 234 15,400 774 Climbing Minneapolis Center
Thu 12:01:52 PM 45.3328 -84.0767 139° Southeast 202 232 16,100 774 Climbing Minneapolis Center
Thu 12:02:54 PM 45.2869 -84.0189 138° Southeast 206 237 17,000 720 Climbing Minneapolis Center
Thu 12:03:57 PM 45.2458 -83.9664 138° Southeast 204 235 17,600 672 Climbing Minneapolis Center
Thu 12:04:59 PM 45.2039 -83.9028 133° Southeast 207 238 18,400 726 Climbing Minneapolis Center
Thu 12:06:01 PM 45.1644 -83.8367 130° Southeast 205 236 19,100 581 Climbing Minneapolis Center
Thu 12:07:03 PM 45.1261 -83.7747 131° Southeast 206 237 19,600 629 Climbing Minneapolis Center
Thu 12:08:05 PM 45.0867 -83.7100 131° Southeast 212 244 20,400 677 Climbing Minneapolis Center
Thu 12:09:07 PM 45.0475 -83.6453 131° Southeast 216 249 21,000 726 Climbing Minneapolis Center
Thu 12:10:09 PM 45.0086 -83.5794 130° Southeast 218 251 21,900 677 Climbing Minneapolis Center
Thu 12:11:11 PM 44.9669 -83.5131 132° Southeast 222 255 22,400 581 Climbing Minneapolis Center
Thu 12:12:13 PM 44.9186 -83.4344 131° Southeast 222 255 23,100 581 Climbing Minneapolis Center
Thu 12:13:15 PM 44.8772 -83.3667 131° Southeast 225 259 23,600 484 Climbing Minneapolis Center
Thu 12:14:17 PM 44.8353 -83.3000 132° Southeast 227 261 24,100 480 Climbing Minneapolis Center
Thu 12:15:20 PM 44.7961 -83.2342 130° Southeast 224 258 24,600 912 Climbing Minneapolis Center
Thu 12:16:22 PM 44.7572 -83.1703 131° Southeast 219 252 26,000 1,113 Climbing Minneapolis Center
Thu 12:17:24 PM 44.7186 -83.1075 131° Southeast 213 245 26,900 484 Climbing Minneapolis Center
Thu 12:18:26 PM 44.6656 -83.0253 132° Southeast 227 261 27,000 48 Climbing Minneapolis Center
Thu 12:19:28 PM 44.6192 -82.9497 131° Southeast 245 282 27,000 290 Level Minneapolis Center
Thu 12:20:30 PM 44.5694 -82.8731 132° Southeast 260 299 27,600 484 Climbing Minneapolis Center
Thu 12:21:32 PM 44.5250 -82.8000 130° Southeast 254 292 28,000 194 Climbing Minneapolis Center
Thu 12:22:34 PM 44.4772 -82.7253 132° Southeast 254 292 28,000  Level Minneapolis Center
Thu 12:23:36 PM 44.4275 -82.6456 131° Southeast 265 305 28,000  Level Minneapolis Center
Thu 12:24:38 PM 44.3675 -82.5508 132° Southeast 271 312 28,000  Level Minneapolis Center
Thu 12:25:40 PM 44.3172 -82.4708 131° Southeast 273 314 28,000 -52 Level Minneapolis Center
Thu 12:26:34 PM 44.2500 -82.3833 137° Southeast 270 311 27,900 -316 Descending Toronto Center
Thu 12:27:34 PM 44.2000 -82.3000 130° Southeast 280 322 27,400 -450 Descending Toronto Center
Thu 12:28:34 PM 44.1500 -82.2167 130° Southeast 290 334 27,000 -200 Descending Toronto Center
Thu 12:29:34 PM 44.0833 -82.1333 138° Southeast 280 322 27,000  Level Toronto Center
Thu 12:30:34 PM 44.0333 -82.0667 136° Southeast 280 322 27,000  Level Toronto Center
Thu 12:31:34 PM 44.0000 -81.9667 115° Southeast 280 322 27,000  Level Toronto Center
Thu 12:32:34 PM 43.9500 -81.8833 130° Southeast 280 322 27,000  Level Toronto Center
Thu 12:33:34 PM 43.9000 -81.8000 130° Southeast 280 322 27,000  Level Toronto Center
Thu 12:34:34 PM 43.8500 -81.7333 136° Southeast 280 322 27,000  Level Toronto Center
Thu 12:35:34 PM 43.8000 -81.6667 136° Southeast 280 322 27,000  Level Toronto Center
Thu 12:36:34 PM 43.7500 -81.5667 125° Southeast 280 322 27,000  Level Toronto Center
Thu 12:37:34 PM 43.7000 -81.5000 136° Southeast 280 322 27,000  Level Toronto Center
Thu 12:38:34 PM 43.6500 -81.4333 136° Southeast 270 311 27,000  Level Toronto Center
Thu 12:39:34 PM 43.5833 -81.3333 133° Southeast 270 311 27,000  Level Toronto Center
Thu 12:40:34 PM 43.5333 -81.2667 136° Southeast 270 311 27,000 -200 Level Toronto Center
Thu 12:41:34 PM 43.4833 -81.1667 125° Southeast 280 322 26,600 -450 Descending Toronto Center
Thu 12:42:34 PM 43.4333 -81.1000 136° Southeast 280 322 26,100 -350 Descending Toronto Center
Thu 12:43:34 PM 43.3833 -81.0333 136° Southeast 290 334 25,900 -600 Descending Toronto Center
Thu 12:44:34 PM 43.3167 -80.9333 132° Southeast 290 334 24,900 -900 Descending Toronto Center
Thu 12:45:34 PM 43.2667 -80.8667 136° Southeast 290 334 24,100 -450 Descending Toronto Center
Thu 12:46:34 PM 43.2333 -80.7833 119° Southeast 260 299 24,000 -50 Descending Toronto Center
Thu 12:47:34 PM 43.1833 -80.7000 129° Southeast 260 299 24,000  Level Toronto Center
Thu 12:48:34 PM 43.1333 -80.6333 136° Southeast 260 299 24,000  Level Toronto Center
Thu 12:49:34 PM 43.0833 -80.5667 136° Southeast 260 299 24,000  Level Toronto Center
Thu 12:50:34 PM 43.0333 -80.5000 136° Southeast 260 299 24,000  Level Toronto Center
Thu 12:51:34 PM 42.9833 -80.4333 136° Southeast 260 299 24,000 -450 Level Toronto Center
Thu 12:52:34 PM 42.9333 -80.3667 136° Southeast 270 311 23,100 -1,000 Descending Toronto Center
Thu 12:53:34 PM 42.8833 -80.2667 124° Southeast 280 322 22,000 -1,238 Descending Toronto Center
Thu 12:54:40 PM 42.8306 -80.2208 148° Southeast 259 298 20,500 -1,429 Descending Cleveland Center
Thu 12:55:40 PM 42.7803 -80.1503 134° Southeast 254 292 19,000 -1,500 Descending Cleveland Center
Thu 12:56:40 PM 42.7322 -80.0828 134° Southeast 249 287 17,500 -1,550 Descending Cleveland Center
Thu 12:57:40 PM 42.6839 -80.0128 133° Southeast 249 287 15,900 -1,550 Descending Cleveland Center
Thu 12:58:40 PM 42.6419 -79.9425 129° Southeast 249 287 14,400 -1,500 Descending Cleveland Center
Thu 12:59:40 PM 42.5936 -79.8808 137° Southeast 237 273 12,900 -1,450 Descending Cleveland Center
Thu 01:00:40 PM 42.5411 -79.8167 138° Southeast 237 273 11,500 -1,150 Descending Cleveland Center
Thu 01:01:40 PM 42.5094 -79.7581 126° Southeast 223 257 10,600 -700 Descending Cleveland Center
Thu 01:02:40 PM 42.4694 -79.7050 136° Southeast 212 244 10,100 -550 Descending Cleveland Center
Thu 01:03:40 PM 42.4294 -79.6550 137° Southeast 196 226 9,500 -600 Descending Cleveland Center
Thu 01:04:40 PM 42.3872 -79.6050 139° Southeast 196 226 8,900 -700 Descending Cleveland Center
Thu 01:05:40 PM 42.3617 -79.5492 122° Southeast 201 231 8,100 -500 Descending Cleveland Center
Thu 01:06:40 PM 42.3383 -79.4822 115° Southeast 196 226 7,900 -200 Descending Cleveland Center
Thu 01:08:00 PM 42.2637 -79.4124 133° Southeast  Level FlightAware Approximate
Thu 01:15:00 PM 42.1500 -79.2500 133° Southeast  Level FlightAware Approximate
Thu 01:16:00 PM 42.1534 -79.2580 133° Southeast  Level Estimated
Thu 01:17:00 PM 42.1500 -79.2500 133° Southeast  Level FlightAware Approximate
Thu 01:18:00 PM 42.1534 -79.2580 133° Southeast  Level Estimated
Thu 01:19:00 PM 42.1500 -79.2500 133° Southeast  Level FlightAware Approximate

Login

Don't have an account? Register now (free) for customized features, flight alerts, and more!